CheckWX is a tool to help pilots better visualize weather data.  It is not intended as a substitute for an official pre-flight weather briefing.

20:28:54 UTC

CYXJ METAR
Fort St John Airport
Fort St.John, Canada
Current

29 mins ago

CYXJ 202000Z 29008G21KT 250V310 60SM BKN080 07/M13 A2995 RMK AC5 SLP170
Observed
Apr-20 @ 20:00 UTC
Wind
  • 290° at 8 KTS
  • Gusting to 21 KTS
Visibility
60 SM
Flight Rules
VFR
Cloud Levels
  • Broken at 8,000' AGL
Temperature
C / 45°F
Dewpoint
-13°C / 9°F
Humidity
23%
Altimeter
29.95" Hg
Pressure
1014.22 hPa
Previous

1 hour ago

CYXJ 201900Z 25009G17KT 220V300 60SM BKN080 07/M13 A2996 RMK AC5 SLP171
Observed
Apr-20 @ 19:00 UTC
Wind
  • 250° at 9 KTS
  • Gusting to 17 KTS
Visibility
60 SM
Flight Rules
VFR
Cloud Levels
  • Broken at 8,000' AGL
Temperature
C / 45°F
Dewpoint
-13°C / 9°F
Humidity
23%
Altimeter
29.96" Hg
Pressure
1014.52 hPa
Previous

2 hours ago

CYXJ 201800Z 25011G18KT 220V320 60SM SCT080 06/M12 A2996 RMK CU4 SLP173
Observed
Apr-20 @ 18:00 UTC
Wind
  • 250° at 11 KTS
  • Gusting to 18 KTS
Visibility
60 SM
Flight Rules
VFR
Cloud Levels
  • Scattered at 8,000' AGL
Temperature
C / 43°F
Dewpoint
-12°C / 10°F
Humidity
26%
Altimeter
29.96" Hg
Pressure
1014.52 hPa